Charlottesville Albemarle Airport
KCHO : now visible

Aeroporto :











RITROVATECI SU...

 
LOGIN :

Iscrizione | Disclaimer

   EN    FR    IT 

 









Sommario :    VFR   VFR Marginale   IFR   IFR Intensivo   IFR Molto Intensivo
Visibilità : 
Base nubi : 
>= 8 km
>= 3000ft
5 / 8 km
1000 / 3000 ft
1500m / 5 km
500 / 1000 ft
800 / 1500m
200 / 500 ft
< 800m
< 200 ft
Simboli :   Temporali  Nebbia  Neve Forte  Precipitazioni Forti  Vento > 20 kt






- Altitudine del aeroporto : 639 ft
- Codice IATA : CHO


KCHO - Charlottesville Albemarle

ULTIMO METAR :
  • 150453Z AUTO 21005KT 10SM OVC060 08/M01 A2971 RMK AO2 SLP060 T00831006 401500039

METARs OBSOLETI :
  • 150353Z 29009KT 260V340 10SM FEW055 09/M02 A2968 RMK AO2 SLP050 T00891017
  • 150253Z 28006KT 10SM CLR 09/M02 A2965 RMK AO2 SLP038 T00891017 51022

TAF KCHO
Valido dal 15 a 06 ore il 16 a 06 ore UTC


150520Z 1506/1606 23007KT P6SM SCT130
FM151500 25009KT P6SM FEW150
FM152300 27005KT P6SM FEW150
FM160200 31004KT P6SM BKN110
FM160400 00000KT P6SM OVC070



MetMap, La meteo Aeronautica in un colpo d'occhio ! - Copyright ORBIFLY Dicembre 2007 - Disclaimer

ORBIFLY MET'MAP TEAM :

Programmazione e sviluppo : Alexandra Zaïnal
Concezione : Baudouin d'Aumeries
Aiuto per la programmazione : Marc-Olivier Méhu
Supporto tecnico e logistico : Manuel Goepfert
Aiuto per la traduzione : Arnaldo La Scala

Contatto : metmap@orbifly.com




FONTI E CREDITI :

   NOAA       Earth
Advisory